GCXO/TFN METAR and TAF weather

Enter ICAO airport designator
Station Type Date Time Source
GCXO METAR 2020/07/09 09:00 UTC NOAA

GCXO 090900Z 29012KT CAVOK 25/11 Q1021 NOSIG


Station Type Date Time Source
GCXO Decoded METAR 2020/07/09 09:00 UTC NOAA

Tenerife / Los Rodeos, Spain (GCXO) 28-28N 016-19W 617M
Jul 09, 2020 - 05:00 AM EDT / 2020.07.09 0900 UTC
Wind: from the WNW (290 degrees) at 14 MPH (12 KT):0
Visibility: greater than 7 mile(s):0
Temperature: 77 F (25 C)
Dew Point: 51 F (11 C)
Relative Humidity: 41%
Pressure (altimeter): 30.15 in. Hg (1021 hPa)
ob: GCXO 090900Z 29012KT CAVOK 25/11 Q1021 NOSIG
cycle: 9

Station Type Date Time Source
GCXO TAF 2020/07/09 09:27 UTC NOAA

TAF GCXO 090800Z 0909/1009 29013KT CAVOK TX25/0915Z TN16/1006Z PROB30
TEMPO 0915/1003 30018G28KT PROB40
TEMPO 0918/1009 2500 BCFG BKN003

Example: see airport list